Time,TemperatureF,DewpointF,PressureIn,WindDirection,WindDirectionDegrees,WindSpeedMPH,WindSpeedGustMPH,Humidity,HourlyPrecipIn,Conditions,Clouds,dailyrainin,SoftwareType,DateUTC
2013-01-04 00:01:00,30.2,27.4,30.30,ESE,112,0.0,0.0,89,0.00,,CLR,0.00,VWS V14.01,2013-01-04 05:01:00,
2013-01-04 00:04:00,30.2,27.4,30.30,ESE,112,0.0,0.0,89,0.00,,CLR,0.00,VWS V14.01,2013-01-04 05:04:00,
2013-01-04 00:07:00,30.2,27.4,30.30,SE,135,0.0,0.0,89,0.00,,CLR,0.00,VWS V14.01,2013-01-04 05:07:00,
2013-01-04 00:12:00,30.1,27.3,30.30,SE,135,0.0,0.0,89,0.00,,CLR,0.00,VWS V14.01,2013-01-04 05:12:00,
2013-01-04 00:16:00,30.1,27.5,30.30,SSW,202,0.0,0.0,90,0.00,,CLR,0.00,VWS V14.01,2013-01-04 05:16:00,
2013-01-04 00:21:00,30.1,27.5,30.30,SSW,202,0.0,0.0,90,0.00,,CLR,0.00,VWS V14.01,2013-01-04 05:21:00,
2013-01-04 00:26:00,29.9,27.3,30.29,SSE,158,0.0,0.0,90,0.00,,CLR,0.00,VWS V14.01,2013-01-04 05:26:00,
2013-01-04 00:31:00,29.7,27.1,30.29,SSE,158,0.0,0.0,90,0.00,,CLR,0.00,VWS V14.01,2013-01-04 05:31:00,
2013-01-04 00:36:00,29.5,26.7,30.29,SSE,158,0.0,0.0,89,0.00,,CLR,0.00,VWS V14.01,2013-01-04 05:36:00,
2013-01-04 00:44:00,29.5,26.9,30.30,SSE,158,0.0,0.0,90,0.00,,CLR,0.00,VWS V14.01,2013-01-04 05:44:00,
2013-01-04 00:49:00,29.5,26.9,30.30,SSE,158,0.0,0.0,90,0.00,,CLR,0.00,VWS V14.01,2013-01-04 05:49:00,
2013-01-04 00:54:00,29.5,26.9,30.30,SSE,158,0.0,0.0,90,0.00,,CLR,0.00,VWS V14.01,2013-01-04 05:54:00,
2013-01-04 00:59:00,29.5,26.9,30.30,SSE,158,0.0,0.0,90,0.00,,CLR,0.00,VWS V14.01,2013-01-04 05:59:00,
2013-01-04 01:04:00,29.5,26.9,30.30,SSE,158,0.0,0.0,90,0.00,,CLR,0.00,VWS V14.01,2013-01-04 06:04:00,
2013-01-04 01:09:00,29.5,26.9,30.30,SSE,158,0.0,0.0,90,0.00,,CLR,0.00,VWS V14.01,2013-01-04 06:09:00,
2013-01-04 01:14:00,29.3,27.0,30.30,SSE,158,0.0,0.0,91,0.00,,CLR,0.00,VWS V14.01,2013-01-04 06:14:00,
2013-01-04 01:19:00,29.3,27.0,30.30,SSE,158,0.0,0.0,91,0.00,,CLR,0.00,VWS V14.01,2013-01-04 06:19:00,
2013-01-04 01:24:00,29.2,26.9,30.30,SSE,158,0.0,0.0,91,0.00,,CLR,0.00,VWS V14.01,2013-01-04 06:24:00,
2013-01-04 01:29:00,29.2,26.9,30.31,SSE,158,0.0,0.0,91,0.00,,CLR,0.00,VWS V14.01,2013-01-04 06:29:00,
2013-01-04 01:34:00,29.0,26.7,30.31,SSE,158,0.0,0.0,91,0.00,,CLR,0.00,VWS V14.01,2013-01-04 06:34:00,
2013-01-04 01:39:00,28.8,26.5,30.31,SSE,158,0.0,0.0,91,0.00,,CLR,0.00,VWS V14.01,2013-01-04 06:39:00,
2013-01-04 01:44:00,28.6,26.3,30.32,SSE,158,0.0,0.0,91,0.00,,CLR,0.00,VWS V14.01,2013-01-04 06:44:00,
2013-01-04 01:49:00,28.4,26.1,30.32,SSE,158,0.0,0.0,91,0.00,,CLR,0.00,VWS V14.01,2013-01-04 06:49:00,
2013-01-04 01:54:00,28.4,26.1,30.31,SSE,158,0.0,0.0,91,0.00,,CLR,0.00,VWS V14.01,2013-01-04 06:54:00,
2013-01-04 01:59:00,28.3,26.0,30.31,SSE,158,0.0,0.0,91,0.00,,CLR,0.00,VWS V14.01,2013-01-04 06:59:00,
2013-01-04 02:04:00,28.3,26.0,30.31,SSE,158,0.0,0.0,91,0.00,,CLR,0.00,VWS V14.01,2013-01-04 07:04:00,
2013-01-04 02:09:00,28.3,26.0,30.31,SSE,158,0.0,0.0,91,0.00,,CLR,0.00,VWS V14.01,2013-01-04 07:09:00,
2013-01-04 02:14:00,28.1,25.8,30.32,SSE,158,0.0,0.0,91,0.00,,CLR,0.00,VWS V14.01,2013-01-04 07:14:00,
2013-01-04 02:19:00,27.9,25.6,30.31,SSE,158,0.0,0.0,91,0.00,,CLR,0.00,VWS V14.01,2013-01-04 07:19:00,
2013-01-04 02:24:00,27.9,25.6,30.32,SSE,158,0.0,0.0,91,0.00,,CLR,0.00,VWS V14.01,2013-01-04 07:24:00,
2013-01-04 02:29:00,27.9,25.6,30.31,SSE,158,0.0,0.0,91,0.00,,CLR,0.00,VWS V14.01,2013-01-04 07:29:00,
2013-01-04 02:34:00,27.7,25.4,30.31,SSE,158,0.0,0.0,91,0.00,,CLR,0.00,VWS V14.01,2013-01-04 07:34:00,
2013-01-04 02:39:00,27.7,25.4,30.31,SSE,158,0.0,0.0,91,0.00,,CLR,0.00,VWS V14.01,2013-01-04 07:39:00,
2013-01-04 02:44:00,27.5,25.2,30.31,SSE,158,0.0,0.0,91,0.00,,CLR,0.00,VWS V14.01,2013-01-04 07:44:00,
2013-01-04 02:49:00,27.4,25.1,30.31,SSE,158,0.0,0.0,91,0.00,,CLR,0.00,VWS V14.01,2013-01-04 07:49:00,
2013-01-04 02:54:00,27.4,25.1,30.31,SSE,158,0.0,0.0,91,0.00,,CLR,0.00,VWS V14.01,2013-01-04 07:54:00,
2013-01-04 02:59:00,27.4,25.1,30.31,SSE,158,0.0,0.0,91,0.00,,CLR,0.00,VWS V14.01,2013-01-04 07:59:00,
2013-01-04 03:04:00,27.2,24.9,30.31,SSE,158,0.0,0.0,91,0.00,,CLR,0.00,VWS V14.01,2013-01-04 08:04:00,
2013-01-04 03:09:00,27.4,25.1,30.32,SSE,158,0.0,0.0,91,0.00,,CLR,0.00,VWS V14.01,2013-01-04 08:09:00,
2013-01-04 03:14:00,27.4,25.1,30.32,SSE,158,0.0,0.0,91,0.00,,CLR,0.00,VWS V14.01,2013-01-04 08:14:00,
2013-01-04 03:19:00,27.5,25.2,30.32,SSE,158,0.0,0.0,91,0.00,,CLR,0.00,VWS V14.01,2013-01-04 08:19:00,
2013-01-04 03:24:00,27.2,24.9,30.32,SSE,158,0.0,0.0,91,0.00,,CLR,0.00,VWS V14.01,2013-01-04 08:24:00,
2013-01-04 03:29:00,27.0,24.7,30.31,SSE,158,0.0,0.0,91,0.00,,CLR,0.00,VWS V14.01,2013-01-04 08:29:00,
2013-01-04 03:34:00,27.0,24.7,30.31,SSE,158,0.0,0.0,91,0.00,,CLR,0.00,VWS V14.01,2013-01-04 08:34:00,
2013-01-04 03:39:00,26.8,24.5,30.30,SSE,158,0.0,0.0,91,0.00,,CLR,0.00,VWS V14.01,2013-01-04 08:39:00,
2013-01-04 03:44:00,26.8,24.5,30.30,SSE,158,0.0,0.0,91,0.00,,CLR,0.00,VWS V14.01,2013-01-04 08:44:00,
2013-01-04 03:49:00,26.8,24.5,30.31,SSE,158,0.0,0.0,91,0.00,,CLR,0.00,VWS V14.01,2013-01-04 08:49:00,
2013-01-04 03:54:00,26.8,24.5,30.31,SSE,158,0.0,0.0,91,0.00,,CLR,0.00,VWS V14.01,2013-01-04 08:54:00,
2013-01-04 03:59:00,26.8,24.5,30.30,SSE,158,0.0,0.0,91,0.00,,CLR,0.00,VWS V14.01,2013-01-04 08:59:00,
2013-01-04 04:04:00,26.6,24.3,30.31,SSE,158,0.0,0.0,91,0.00,,CLR,0.00,VWS V14.01,2013-01-04 09:04:00,
2013-01-04 04:09:00,26.5,24.2,30.31,SSE,158,0.0,0.0,91,0.00,,CLR,0.00,VWS V14.01,2013-01-04 09:09:00,
2013-01-04 04:14:00,26.3,24.0,30.31,SSE,158,0.0,0.0,91,0.00,,CLR,0.00,VWS V14.01,2013-01-04 09:14:00,
2013-01-04 04:19:00,26.3,24.0,30.31,SSE,158,0.0,0.0,91,0.00,,CLR,0.00,VWS V14.01,2013-01-04 09:19:00,
2013-01-04 04:24:00,26.1,23.8,30.31,SSE,158,0.0,0.0,91,0.00,,CLR,0.00,VWS V14.01,2013-01-04 09:24:00,
2013-01-04 04:29:00,26.1,23.8,30.31,SSE,158,0.0,0.0,91,0.00,,CLR,0.00,VWS V14.01,2013-01-04 09:29:00,
2013-01-04 04:34:00,26.3,24.0,30.31,SSE,158,0.0,0.0,91,0.00,,CLR,0.00,VWS V14.01,2013-01-04 09:34:00,
2013-01-04 04:39:00,26.1,23.8,30.31,SSE,158,0.0,0.0,91,0.00,,CLR,0.00,VWS V14.01,2013-01-04 09:39:00,
2013-01-04 04:44:00,26.1,23.8,30.31,SSE,158,0.0,0.0,91,0.00,,CLR,0.00,VWS V14.01,2013-01-04 09:44:00,
2013-01-04 04:49:00,25.9,23.6,30.31,SSE,158,0.0,0.0,91,0.00,,CLR,0.00,VWS V14.01,2013-01-04 09:49:00,
2013-01-04 04:54:00,25.9,23.6,30.31,SSE,158,0.0,0.0,91,0.00,,CLR,0.00,VWS V14.01,2013-01-04 09:54:00,
2013-01-04 04:59:00,25.7,23.4,30.31,SSE,158,0.0,0.0,91,0.00,,CLR,0.00,VWS V14.01,2013-01-04 09:59:00,
2013-01-04 05:04:00,25.7,23.4,30.31,SSE,158,0.0,0.0,91,0.00,,CLR,0.00,VWS V14.01,2013-01-04 10:04:00,
2013-01-04 05:09:00,25.7,23.4,30.30,SSE,158,0.0,0.0,91,0.00,,CLR,0.00,VWS V14.01,2013-01-04 10:09:00,
2013-01-04 05:14:00,25.6,23.3,30.31,SSE,158,0.0,0.0,91,0.00,,CLR,0.00,VWS V14.01,2013-01-04 10:14:00,
2013-01-04 05:19:00,25.6,23.3,30.31,SSE,158,0.0,0.0,91,0.00,,CLR,0.00,VWS V14.01,2013-01-04 10:19:00,
2013-01-04 05:24:00,25.6,23.3,30.31,SSE,158,0.0,0.0,91,0.00,,CLR,0.00,VWS V14.01,2013-01-04 10:24:00,
2013-01-04 05:29:00,25.4,23.1,30.31,SSE,158,0.0,0.0,91,0.00,,CLR,0.00,VWS V14.01,2013-01-04 10:29:00,
2013-01-04 05:34:00,25.4,23.1,30.31,SSE,158,0.0,0.0,91,0.00,,CLR,0.00,VWS V14.01,2013-01-04 10:34:00,
2013-01-04 05:39:00,25.4,23.1,30.31,SSE,158,0.0,0.0,91,0.00,,CLR,0.00,VWS V14.01,2013-01-04 10:39:00,
2013-01-04 05:44:00,25.4,23.1,30.31,SSE,158,0.0,0.0,91,0.00,,CLR,0.00,VWS V14.01,2013-01-04 10:44:00,
2013-01-04 05:49:00,25.4,23.1,30.31,SSE,158,0.0,0.0,91,0.00,,CLR,0.00,VWS V14.01,2013-01-04 10:49:00,
2013-01-04 05:54:00,25.4,23.1,30.31,SSE,158,0.0,0.0,91,0.00,,CLR,0.00,VWS V14.01,2013-01-04 10:54:00,
2013-01-04 05:59:00,25.4,23.1,30.31,SSE,158,0.0,0.0,91,0.00,,CLR,0.00,VWS V14.01,2013-01-04 10:59:00,
2013-01-04 06:04:00,25.2,23.0,30.31,SSE,158,0.0,0.0,91,0.00,,CLR,0.00,VWS V14.01,2013-01-04 11:04:00,
2013-01-04 06:09:00,25.2,23.0,30.30,SSE,158,0.0,0.0,91,0.00,,CLR,0.00,VWS V14.01,2013-01-04 11:09:00,
2013-01-04 06:14:00,25.0,22.8,30.30,SSE,158,0.0,0.0,91,0.00,,CLR,0.00,VWS V14.01,2013-01-04 11:14:00,
2013-01-04 06:19:00,25.0,22.8,30.30,SSE,158,0.0,0.0,91,0.00,,CLR,0.00,VWS V14.01,2013-01-04 11:19:00,
2013-01-04 06:24:00,25.0,22.8,30.31,SSE,158,0.0,0.0,91,0.00,,CLR,0.00,VWS V14.01,2013-01-04 11:24:00,
2013-01-04 06:29:00,25.0,22.8,30.31,SSE,158,0.0,0.0,91,0.00,,CLR,0.00,VWS V14.01,2013-01-04 11:29:00,
2013-01-04 06:34:00,24.8,22.3,30.32,SSE,158,0.0,0.0,90,0.00,,CLR,0.00,VWS V14.01,2013-01-04 11:34:00,
2013-01-04 06:39:00,24.8,22.3,30.32,SSE,158,0.0,0.0,90,0.00,,CLR,0.00,VWS V14.01,2013-01-04 11:39:00,
2013-01-04 06:44:00,24.8,22.3,30.32,SSE,158,0.0,0.0,90,0.00,,CLR,0.00,VWS V14.01,2013-01-04 11:44:00,
2013-01-04 06:49:00,24.8,22.3,30.32,SSE,158,0.0,0.0,90,0.00,,CLR,0.00,VWS V14.01,2013-01-04 11:49:00,
2013-01-04 06:54:00,24.7,22.2,30.32,SSE,158,0.0,0.0,90,0.00,,CLR,0.00,VWS V14.01,2013-01-04 11:54:00,
2013-01-04 06:59:00,24.7,22.2,30.33,SSE,158,0.0,0.0,90,0.00,,CLR,0.00,VWS V14.01,2013-01-04 11:59:00,
2013-01-04 07:04:00,24.7,22.2,30.33,SSE,158,0.0,0.0,90,0.00,,FEW250,0.00,VWS V14.01,2013-01-04 12:04:00,
2013-01-04 07:09:00,24.7,22.2,30.33,SSE,158,0.0,0.0,90,0.00,,FEW250,0.00,VWS V14.01,2013-01-04 12:09:00,
2013-01-04 07:14:00,24.5,22.0,30.33,SSE,158,0.0,0.0,90,0.00,,FEW250,0.00,VWS V14.01,2013-01-04 12:14:00,
2013-01-04 07:19:00,24.5,22.0,30.33,SSE,158,0.0,0.0,90,0.00,,FEW250,0.00,VWS V14.01,2013-01-04 12:19:00,
2013-01-04 07:24:00,24.3,21.8,30.33,SSE,158,0.0,0.0,90,0.00,,FEW250,0.00,VWS V14.01,2013-01-04 12:24:00,
2013-01-04 07:29:00,24.3,21.8,30.33,SSE,158,0.0,0.0,90,0.00,,FEW250,0.00,VWS V14.01,2013-01-04 12:29:00,
2013-01-04 07:34:00,24.3,21.8,30.33,SSE,158,0.0,0.0,90,0.00,,FEW250,0.00,VWS V14.01,2013-01-04 12:34:00,
2013-01-04 07:39:00,24.5,22.0,30.33,SSE,158,0.0,0.0,90,0.00,,FEW250,0.00,VWS V14.01,2013-01-04 12:39:00,
2013-01-04 07:44:00,24.3,21.8,30.33,SSE,158,0.0,0.0,90,0.00,,FEW250,0.00,VWS V14.01,2013-01-04 12:44:00,
2013-01-04 07:49:00,24.3,21.8,30.33,SSE,158,0.0,0.0,90,0.00,,FEW250,0.00,VWS V14.01,2013-01-04 12:49:00,
2013-01-04 07:54:00,24.3,21.8,30.33,SSE,158,0.0,0.0,90,0.00,,FEW250,0.00,VWS V14.01,2013-01-04 12:54:00,
2013-01-04 07:59:00,24.5,22.0,30.33,SSE,158,0.0,0.0,90,0.00,,FEW250,0.00,VWS V14.01,2013-01-04 12:59:00,
2013-01-04 08:04:00,24.5,22.0,30.33,SSE,158,0.0,0.0,90,0.00,,CLR,0.00,VWS V14.01,2013-01-04 13:04:00,
2013-01-04 08:09:00,24.7,22.2,30.34,SSE,158,0.0,0.0,90,0.00,,CLR,0.00,VWS V14.01,2013-01-04 13:09:00,
2013-01-04 08:14:00,25.0,22.8,30.34,SSE,158,0.0,0.0,91,0.00,,CLR,0.00,VWS V14.01,2013-01-04 13:14:00,
2013-01-04 08:19:00,25.4,23.1,30.34,SSE,158,0.0,0.0,91,0.00,,CLR,0.00,VWS V14.01,2013-01-04 13:19:00,
2013-01-04 08:24:00,25.7,23.4,30.35,SSE,158,0.0,0.0,91,0.00,,CLR,0.00,VWS V14.01,2013-01-04 13:24:00,
2013-01-04 08:29:00,26.1,23.8,30.35,SSE,158,0.0,0.0,91,0.00,,CLR,0.00,VWS V14.01,2013-01-04 13:29:00,
2013-01-04 08:34:00,26.3,24.0,30.35,SSE,158,0.0,0.0,91,0.00,,CLR,0.00,VWS V14.01,2013-01-04 13:34:00,
2013-01-04 08:39:00,26.6,24.3,30.35,SSE,158,0.0,0.0,91,0.00,,CLR,0.00,VWS V14.01,2013-01-04 13:39:00,
2013-01-04 08:44:00,27.0,24.7,30.35,SSE,158,0.0,0.0,91,0.00,,CLR,0.00,VWS V14.01,2013-01-04 13:44:00,
2013-01-04 08:49:00,27.4,25.4,30.35,SSE,158,0.0,0.0,92,0.00,,CLR,0.00,VWS V14.01,2013-01-04 13:49:00,
2013-01-04 08:54:00,27.9,25.9,30.35,SSE,158,0.0,0.0,92,0.00,,CLR,0.00,VWS V14.01,2013-01-04 13:54:00,
2013-01-04 08:59:00,28.4,26.4,30.36,SSE,158,0.0,0.0,92,0.00,,CLR,0.00,VWS V14.01,2013-01-04 13:59:00,
2013-01-04 09:04:00,28.8,26.8,30.36,SSE,158,0.0,0.0,92,0.00,,CLR,0.00,VWS V14.01,2013-01-04 14:04:00,
2013-01-04 09:09:00,29.5,27.5,30.36,SSE,158,0.0,0.0,92,0.00,,CLR,0.00,VWS V14.01,2013-01-04 14:09:00,
2013-01-04 09:14:00,29.9,27.9,30.36,SSE,158,0.0,0.0,92,0.00,,CLR,0.00,VWS V14.01,2013-01-04 14:14:00,
2013-01-04 09:19:00,30.4,28.4,30.37,SSE,158,0.0,0.0,92,0.00,,CLR,0.00,VWS V14.01,2013-01-04 14:19:00,
2013-01-04 09:24:00,31.0,29.0,30.37,SSE,158,0.4,0.4,92,0.00,,CLR,0.00,VWS V14.01,2013-01-04 14:24:00,
2013-01-04 09:29:00,31.7,29.6,30.37,SSE,158,0.4,0.4,92,0.00,,CLR,0.00,VWS V14.01,2013-01-04 14:29:00,
2013-01-04 09:34:00,32.2,30.1,30.37,SSE,158,0.0,0.0,92,0.00,,CLR,0.00,VWS V14.01,2013-01-04 14:34:00,
2013-01-04 09:39:00,32.8,30.7,30.37,SSE,158,0.2,0.2,92,0.00,,CLR,0.00,VWS V14.01,2013-01-04 14:39:00,
2013-01-04 09:44:00,33.5,31.4,30.37,SSE,158,0.4,0.4,92,0.00,,CLR,0.00,VWS V14.01,2013-01-04 14:44:00,
2013-01-04 09:49:00,34.4,32.3,30.37,SSE,158,0.2,0.2,92,0.00,,CLR,0.00,VWS V14.01,2013-01-04 14:49:00,
2013-01-04 09:54:00,35.1,32.5,30.37,SSE,158,0.4,0.4,90,0.00,,CLR,0.00,VWS V14.01,2013-01-04 14:54:00,
2013-01-04 09:59:00,35.8,32.6,30.38,South,180,0.2,0.2,88,0.00,,CLR,0.00,VWS V14.01,2013-01-04 14:59:00,
2013-01-04 10:04:00,36.5,32.1,30.38,West,270,1.6,1.6,84,0.00,,CLR,0.00,VWS V14.01,2013-01-04 15:04:00,
2013-01-04 10:09:00,37.1,31.8,30.37,North,0,0.9,0.9,81,0.00,,CLR,0.00,VWS V14.01,2013-01-04 15:09:00,
2013-01-04 10:14:00,37.6,31.4,30.38,NNW,338,0.7,0.7,78,0.00,,CLR,0.00,VWS V14.01,2013-01-04 15:14:00,
2013-01-04 10:19:00,38.2,31.3,30.37,West,270,1.8,1.8,76,0.00,,CLR,0.00,VWS V14.01,2013-01-04 15:19:00,
2013-01-04 10:24:00,38.5,31.9,30.37,SW,225,1.6,1.6,77,0.00,,CLR,0.00,VWS V14.01,2013-01-04 15:24:00,
2013-01-04 10:29:00,38.5,32.6,30.37,ENE,68,1.1,1.1,79,0.00,,CLR,0.00,VWS V14.01,2013-01-04 15:29:00,
2013-01-04 10:34:00,39.1,32.2,30.37,NNE,22,1.1,1.1,76,0.00,,CLR,0.00,VWS V14.01,2013-01-04 15:34:00,
2013-01-04 10:39:00,39.4,33.4,30.36,ESE,112,0.4,0.4,79,0.00,,CLR,0.00,VWS V14.01,2013-01-04 15:39:00,
2013-01-04 10:44:00,40.0,32.1,30.37,South,180,0.4,0.4,73,0.00,,CLR,0.00,VWS V14.01,2013-01-04 15:44:00,
2013-01-04 10:49:00,40.5,31.5,30.36,NNW,338,0.4,0.4,70,0.00,,CLR,0.00,VWS V14.01,2013-01-04 15:49:00,
2013-01-04 10:54:00,40.9,30.8,30.36,WNW,292,1.1,1.1,67,0.00,,CLR,0.00,VWS V14.01,2013-01-04 15:54:00,
2013-01-04 10:59:00,41.4,30.5,30.35,SSW,202,0.9,0.9,65,0.00,,CLR,0.00,VWS V14.01,2013-01-04 15:59:00,
2013-01-04 11:04:00,41.9,30.6,30.35,West,270,0.7,0.7,64,0.00,,CLR,0.00,VWS V14.01,2013-01-04 16:04:00,
2013-01-04 11:09:00,42.1,29.6,30.35,WNW,292,1.8,1.8,61,0.00,,CLR,0.00,VWS V14.01,2013-01-04 16:09:00,
2013-01-04 11:14:00,42.7,30.6,30.35,SW,225,2.5,2.5,62,0.00,,CLR,0.00,VWS V14.01,2013-01-04 16:14:00,
2013-01-04 11:19:00,42.5,31.2,30.35,SSW,202,3.1,3.1,64,0.00,,CLR,0.00,VWS V14.01,2013-01-04 16:19:00,
2013-01-04 11:24:00,42.5,29.6,30.35,SE,135,0.0,0.0,60,0.00,,CLR,0.00,VWS V14.01,2013-01-04 16:24:00,
2013-01-04 11:29:00,42.8,30.7,30.34,WSW,248,2.0,2.0,62,0.00,,CLR,0.00,VWS V14.01,2013-01-04 16:29:00,
2013-01-04 11:34:00,43.0,29.7,30.34,NNW,338,2.0,2.0,59,0.00,,CLR,0.00,VWS V14.01,2013-01-04 16:34:00,
2013-01-04 11:39:00,43.6,29.4,30.34,WSW,248,2.2,2.2,57,0.00,,CLR,0.00,VWS V14.01,2013-01-04 16:39:00,
2013-01-04 11:44:00,43.9,28.8,30.34,SW,225,4.0,4.0,55,0.00,,CLR,0.00,VWS V14.01,2013-01-04 16:44:00,
2013-01-04 11:49:00,44.3,28.7,30.33,NW,315,2.9,2.9,54,0.00,,CLR,0.00,VWS V14.01,2013-01-04 16:49:00,
2013-01-04 11:54:00,44.6,29.5,30.33,WNW,292,2.5,2.5,55,0.00,,CLR,0.00,VWS V14.01,2013-01-04 16:54:00,
2013-01-04 11:59:00,44.8,28.7,30.33,West,270,0.2,0.2,53,0.00,,CLR,0.00,VWS V14.01,2013-01-04 16:59:00,
2013-01-04 12:04:00,45.2,30.5,30.33,WNW,292,1.8,2.5,56,0.00,,CLR,0.00,VWS V14.01,2013-01-04 17:04:00,
2013-01-04 12:09:00,45.4,30.6,30.33,South,180,2.9,2.9,56,0.00,,CLR,0.00,VWS V14.01,2013-01-04 17:09:00,
2013-01-04 12:14:00,45.4,29.3,30.32,West,270,2.0,2.0,53,0.00,,CLR,0.00,VWS V14.01,2013-01-04 17:14:00,
2013-01-04 12:19:00,45.7,29.6,30.32,WSW,248,1.6,1.6,53,0.00,,CLR,0.00,VWS V14.01,2013-01-04 17:19:00,
2013-01-04 12:24:00,46.3,29.2,30.32,NNW,338,1.1,1.1,51,0.00,,CLR,0.00,VWS V14.01,2013-01-04 17:24:00,
2013-01-04 12:29:00,46.4,29.3,30.32,SW,225,1.8,1.8,51,0.00,,CLR,0.00,VWS V14.01,2013-01-04 17:29:00,
2013-01-04 12:34:00,46.4,28.8,30.31,WSW,248,1.6,1.6,50,0.00,,CLR,0.00,VWS V14.01,2013-01-04 17:34:00,
2013-01-04 12:39:00,46.6,29.0,30.31,SSE,158,4.3,4.3,50,0.00,,CLR,0.00,VWS V14.01,2013-01-04 17:39:00,
2013-01-04 12:44:00,46.8,28.7,30.31,SW,225,4.7,4.7,49,0.00,,CLR,0.00,VWS V14.01,2013-01-04 17:44:00,
2013-01-04 12:49:00,47.0,29.3,30.30,SW,225,2.2,2.2,50,0.00,,CLR,0.00,VWS V14.01,2013-01-04 17:49:00,
2013-01-04 12:54:00,47.0,29.3,30.30,South,180,4.0,4.0,50,0.00,,CLR,0.00,VWS V14.01,2013-01-04 17:54:00,
2013-01-04 12:59:00,47.3,30.1,30.30,SSW,202,4.5,4.5,51,0.00,,CLR,0.00,VWS V14.01,2013-01-04 17:59:00,
2013-01-04 13:04:00,47.5,30.3,30.30,South,180,1.6,1.6,51,0.00,,CLR,0.00,VWS V14.01,2013-01-04 18:04:00,
2013-01-04 13:09:00,47.5,29.8,30.29,West,270,0.4,0.4,50,0.00,,CLR,0.00,VWS V14.01,2013-01-04 18:09:00,
2013-01-04 13:14:00,47.9,29.7,30.29,WSW,248,1.8,1.8,49,0.00,,CLR,0.00,VWS V14.01,2013-01-04 18:14:00,
2013-01-04 13:19:00,48.2,30.9,30.28,WSW,248,3.1,3.1,51,0.00,,CLR,0.00,VWS V14.01,2013-01-04 18:19:00,
2013-01-04 13:24:00,48.2,30.0,30.28,NW,315,1.1,1.1,49,0.00,,CLR,0.00,VWS V14.01,2013-01-04 18:24:00,
2013-01-04 13:29:00,48.6,29.8,30.28,SW,225,1.1,1.1,48,0.00,,CLR,0.00,VWS V14.01,2013-01-04 18:29:00,
2013-01-04 13:34:00,49.0,30.2,30.28,SW,225,1.8,1.8,48,0.00,,CLR,0.00,VWS V14.01,2013-01-04 18:34:00,
2013-01-04 13:39:00,49.0,30.2,30.27,SW,225,1.8,1.8,48,0.00,,CLR,0.00,VWS V14.01,2013-01-04 18:39:00,
2013-01-04 13:44:00,49.1,30.8,30.27,South,180,2.0,2.0,49,0.00,,CLR,0.00,VWS V14.01,2013-01-04 18:44:00,
2013-01-04 13:49:00,49.1,29.2,30.27,NNW,338,2.2,2.2,46,0.00,,CLR,0.00,VWS V14.01,2013-01-04 18:49:00,
2013-01-04 13:54:00,49.1,29.2,30.27,WSW,248,2.5,2.5,46,0.00,,CLR,0.00,VWS V14.01,2013-01-04 18:54:00,
2013-01-04 13:59:00,49.3,28.3,30.27,West,270,1.8,1.8,44,0.00,,CLR,0.00,VWS V14.01,2013-01-04 18:59:00,
2013-01-04 14:04:00,49.5,29.6,30.26,SW,225,2.2,4.0,46,0.00,,CLR,0.00,VWS V14.01,2013-01-04 19:04:00,
2013-01-04 14:09:00,49.5,28.5,30.26,West,270,1.8,1.8,44,0.00,,CLR,0.00,VWS V14.01,2013-01-04 19:09:00,
2013-01-04 14:14:00,49.5,29.6,30.25,WNW,292,1.3,1.3,46,0.00,,CLR,0.00,VWS V14.01,2013-01-04 19:14:00,
2013-01-04 14:19:00,49.5,29.6,30.25,SW,225,5.8,5.8,46,0.00,,CLR,0.00,VWS V14.01,2013-01-04 19:19:00,
2013-01-04 14:24:00,49.5,30.1,30.25,SW,225,2.0,2.0,47,0.00,,CLR,0.00,VWS V14.01,2013-01-04 19:24:00,
2013-01-04 14:29:00,49.7,30.3,30.25,South,180,4.7,4.7,47,0.00,,CLR,0.00,VWS V14.01,2013-01-04 19:29:00,
2013-01-04 14:34:00,49.7,29.8,30.25,WNW,292,2.9,2.9,46,0.00,,CLR,0.00,VWS V14.01,2013-01-04 19:34:00,
2013-01-04 14:39:00,49.9,30.5,30.25,SSW,202,3.4,3.4,47,0.00,,CLR,0.00,VWS V14.01,2013-01-04 19:39:00,
2013-01-04 14:44:00,49.9,28.9,30.25,WSW,248,2.5,2.5,44,0.00,,CLR,0.00,VWS V14.01,2013-01-04 19:44:00,
2013-01-04 14:49:00,50.0,29.0,30.25,SSW,202,5.8,5.8,44,0.00,,CLR,0.00,VWS V14.01,2013-01-04 19:49:00,
2013-01-04 14:54:00,50.2,31.3,30.25,SW,225,2.9,2.9,48,0.00,,CLR,0.00,VWS V14.01,2013-01-04 19:54:00,
2013-01-04 14:59:00,50.4,31.0,30.25,South,180,4.3,4.3,47,0.00,,CLR,0.00,VWS V14.01,2013-01-04 19:59:00,
2013-01-04 15:04:00,50.4,29.3,30.25,SW,225,9.2,9.2,44,0.00,,FEW250,0.00,VWS V14.01,2013-01-04 20:04:00,
2013-01-04 15:09:00,50.6,29.0,30.25,West,270,2.7,2.7,43,0.00,,FEW250,0.00,VWS V14.01,2013-01-04 20:09:00,
2013-01-04 15:14:00,50.4,28.8,30.25,WSW,248,2.5,2.5,43,0.00,,FEW250,0.00,VWS V14.01,2013-01-04 20:14:00,
2013-01-04 15:19:00,50.6,29.0,30.25,West,270,2.0,2.0,43,0.00,,FEW250,0.00,VWS V14.01,2013-01-04 20:19:00,
2013-01-04 15:24:00,50.6,29.5,30.25,WSW,248,7.4,7.4,44,0.00,,FEW250,0.00,VWS V14.01,2013-01-04 20:24:00,
2013-01-04 15:29:00,50.6,29.5,30.25,NW,315,3.1,3.1,44,0.00,,FEW250,0.00,VWS V14.01,2013-01-04 20:29:00,
2013-01-04 15:34:00,50.6,29.5,30.26,SW,225,2.5,2.5,44,0.00,,FEW250,0.00,VWS V14.01,2013-01-04 20:34:00,
2013-01-04 15:39:00,50.6,29.5,30.26,NW,315,1.8,1.8,44,0.00,,FEW250,0.00,VWS V14.01,2013-01-04 20:39:00,
2013-01-04 15:44:00,50.8,29.7,30.26,WNW,292,1.8,1.8,44,0.00,,FEW250,0.00,VWS V14.01,2013-01-04 20:44:00,
2013-01-04 15:49:00,50.8,28.5,30.26,SW,225,2.0,2.0,42,0.00,,FEW250,0.00,VWS V14.01,2013-01-04 20:49:00,
2013-01-04 15:54:00,50.8,29.1,30.26,SSW,202,1.8,1.8,43,0.00,,FEW250,0.00,VWS V14.01,2013-01-04 20:54:00,
2013-01-04 15:59:00,50.6,29.5,30.26,WSW,248,6.3,6.3,44,0.00,,FEW250,0.00,VWS V14.01,2013-01-04 20:59:00,
2013-01-04 16:04:00,50.6,29.5,30.26,WSW,248,2.2,2.2,44,0.00,,FEW250,0.00,VWS V14.01,2013-01-04 21:04:00,
2013-01-04 16:09:00,50.6,29.5,30.26,NW,315,2.7,2.7,44,0.00,,FEW250,0.00,VWS V14.01,2013-01-04 21:09:00,
2013-01-04 16:14:00,50.6,30.1,30.26,WSW,248,4.0,4.0,45,0.00,,FEW250,0.00,VWS V14.01,2013-01-04 21:14:00,
2013-01-04 16:19:00,50.4,29.9,30.26,WSW,248,1.8,1.8,45,0.00,,FEW250,0.00,VWS V14.01,2013-01-04 21:19:00,
2013-01-04 16:24:00,50.4,29.9,30.26,SW,225,0.9,0.9,45,0.00,,FEW250,0.00,VWS V14.01,2013-01-04 21:24:00,
2013-01-04 16:29:00,50.2,28.6,30.26,WNW,292,1.1,1.1,43,0.00,,FEW250,0.00,VWS V14.01,2013-01-04 21:29:00,
2013-01-04 16:34:00,50.4,29.9,30.25,West,270,1.1,1.1,45,0.00,,FEW250,0.00,VWS V14.01,2013-01-04 21:34:00,
2013-01-04 16:39:00,50.0,28.4,30.25,WSW,248,2.7,2.7,43,0.00,,FEW250,0.00,VWS V14.01,2013-01-04 21:39:00,
2013-01-04 16:44:00,50.0,28.4,30.25,West,270,0.2,0.2,43,0.00,,FEW250,0.00,VWS V14.01,2013-01-04 21:44:00,
2013-01-04 16:49:00,50.0,29.0,30.25,WSW,248,0.9,0.9,44,0.00,,FEW250,0.00,VWS V14.01,2013-01-04 21:49:00,
2013-01-04 16:54:00,49.7,28.7,30.25,WNW,292,0.7,0.7,44,0.00,,FEW250,0.00,VWS V14.01,2013-01-04 21:54:00,
2013-01-04 16:59:00,49.7,29.2,30.25,SW,225,0.4,0.4,45,0.00,,FEW250,0.00,VWS V14.01,2013-01-04 21:59:00,
2013-01-04 17:04:00,49.3,29.4,30.26,SW,225,1.6,1.6,46,0.00,,FEW250,0.00,VWS V14.01,2013-01-04 22:04:00,
2013-01-04 17:09:00,49.0,29.7,30.26,SW,225,0.0,0.0,47,0.00,,FEW250,0.00,VWS V14.01,2013-01-04 22:09:00,
2013-01-04 17:14:00,48.6,28.8,30.27,West,270,1.1,1.1,46,0.00,,FEW250,0.00,VWS V14.01,2013-01-04 22:14:00,
2013-01-04 17:19:00,48.6,29.3,30.27,NW,315,0.0,0.0,47,0.00,,FEW250,0.00,VWS V14.01,2013-01-04 22:19:00,
2013-01-04 17:24:00,48.2,29.5,30.28,West,270,0.2,0.2,48,0.00,,FEW250,0.00,VWS V14.01,2013-01-04 22:24:00,
2013-01-04 17:29:00,47.9,29.7,30.28,NNW,338,0.9,0.9,49,0.00,,FEW250,0.00,VWS V14.01,2013-01-04 22:29:00,
2013-01-04 17:34:00,47.3,29.1,30.29,WSW,248,0.0,0.0,49,0.00,,FEW250,0.00,VWS V14.01,2013-01-04 22:34:00,
2013-01-04 17:39:00,47.2,29.5,30.28,SSE,158,0.4,0.4,50,0.00,,FEW250,0.00,VWS V14.01,2013-01-04 22:39:00,
2013-01-04 17:44:00,46.4,29.3,30.28,South,180,0.0,0.0,51,0.00,,FEW250,0.00,VWS V14.01,2013-01-04 22:44:00,
2013-01-04 17:49:00,45.9,28.8,30.27,South,180,0.0,0.0,51,0.00,,FEW250,0.00,VWS V14.01,2013-01-04 22:49:00,
2013-01-04 17:54:00,45.4,28.8,30.28,SSW,202,0.0,0.0,52,0.00,,FEW250,0.00,VWS V14.01,2013-01-04 22:54:00,
2013-01-04 17:59:00,45.0,28.9,30.27,South,180,0.0,0.0,53,0.00,,FEW250,0.00,VWS V14.01,2013-01-04 22:59:00,
2013-01-04 18:04:00,44.3,28.3,30.28,North,0,0.0,0.0,53,0.00,,FEW250,0.00,VWS V14.01,2013-01-04 23:04:00,
2013-01-04 18:09:00,43.4,27.9,30.28,North,0,0.0,0.0,54,0.00,,FEW250,0.00,VWS V14.01,2013-01-04 23:09:00,
2013-01-04 18:14:00,42.8,27.8,30.29,North,0,0.0,0.0,55,0.00,,FEW250,0.00,VWS V14.01,2013-01-04 23:14:00,
2013-01-04 18:19:00,42.3,27.7,30.29,North,0,0.0,0.0,56,0.00,,FEW250,0.00,VWS V14.01,2013-01-04 23:19:00,
2013-01-04 18:24:00,41.8,27.7,30.28,North,0,0.0,0.0,57,0.00,,FEW250,0.00,VWS V14.01,2013-01-04 23:24:00,
2013-01-04 18:29:00,41.0,27.4,30.29,NNE,22,0.0,0.0,58,0.00,,FEW250,0.00,VWS V14.01,2013-01-04 23:29:00,
2013-01-04 18:34:00,40.7,27.5,30.29,NNE,22,0.0,0.0,59,0.00,,FEW250,0.00,VWS V14.01,2013-01-04 23:34:00,
2013-01-04 18:39:00,40.3,27.5,30.29,SW,225,0.0,0.0,60,0.00,,FEW250,0.00,VWS V14.01,2013-01-04 23:39:00,
2013-01-04 18:44:00,40.0,27.6,30.29,WNW,292,0.0,0.0,61,0.00,,FEW250,0.00,VWS V14.01,2013-01-04 23:44:00,
2013-01-04 18:49:00,39.6,27.7,30.30,WNW,292,0.0,0.0,62,0.00,,FEW250,0.00,VWS V14.01,2013-01-04 23:49:00,
2013-01-04 18:54:00,39.2,27.3,30.30,WNW,292,0.0,0.0,62,0.00,,FEW250,0.00,VWS V14.01,2013-01-04 23:54:00,
2013-01-04 18:59:00,38.9,27.4,30.30,SSE,158,0.0,0.0,63,0.00,,FEW250,0.00,VWS V14.01,2013-01-04 23:59:00,
2013-01-04 19:04:00,38.5,27.0,30.30,SSE,158,0.0,0.0,63,0.00,,FEW250,0.00,VWS V14.01,2013-01-05 00:04:00,
2013-01-04 19:09:00,38.2,26.7,30.30,SSE,158,0.0,0.0,63,0.00,,FEW250,0.00,VWS V14.01,2013-01-05 00:09:00,
2013-01-04 19:14:00,37.8,26.4,30.30,SSE,158,0.0,0.0,63,0.00,,FEW250,0.00,VWS V14.01,2013-01-05 00:14:00,
2013-01-04 19:19:00,37.6,26.5,30.31,SSE,158,0.0,0.0,64,0.00,,FEW250,0.00,VWS V14.01,2013-01-05 00:19:00,
2013-01-04 19:24:00,37.3,27.0,30.32,North,0,0.0,0.0,66,0.00,,FEW250,0.00,VWS V14.01,2013-01-05 00:24:00,
2013-01-04 19:29:00,37.1,26.8,30.32,ESE,112,0.2,0.2,66,0.00,,FEW250,0.00,VWS V14.01,2013-01-05 00:29:00,
2013-01-04 19:34:00,37.3,28.1,30.32,North,0,0.4,0.4,69,0.00,,FEW250,0.00,VWS V14.01,2013-01-05 00:34:00,
2013-01-04 19:39:00,38.3,27.2,30.32,SW,225,0.9,0.9,64,0.00,,FEW250,0.00,VWS V14.01,2013-01-05 00:39:00,
2013-01-04 19:44:00,39.2,27.7,30.32,West,270,0.0,0.0,63,0.00,,FEW250,0.00,VWS V14.01,2013-01-05 00:44:00,
2013-01-04 19:49:00,39.2,27.7,30.32,NE,45,0.0,0.0,63,0.00,,FEW250,0.00,VWS V14.01,2013-01-05 00:49:00,
2013-01-04 19:54:00,38.5,27.0,30.33,SW,225,0.0,0.0,63,0.00,,FEW250,0.00,VWS V14.01,2013-01-05 00:54:00,
2013-01-04 19:59:00,38.2,26.7,30.33,SW,225,0.0,0.0,63,0.00,,FEW250,0.00,VWS V14.01,2013-01-05 00:59:00,
2013-01-04 20:04:00,37.8,26.4,30.33,South,180,0.0,0.0,63,0.00,,CLR,0.00,VWS V14.01,2013-01-05 01:04:00,
2013-01-04 20:09:00,37.6,26.2,30.33,South,180,0.0,0.0,63,0.00,,CLR,0.00,VWS V14.01,2013-01-05 01:09:00,
2013-01-04 20:14:00,37.1,25.7,30.33,South,180,0.0,0.0,63,0.00,,CLR,0.00,VWS V14.01,2013-01-05 01:14:00,
2013-01-04 20:19:00,36.9,25.5,30.33,South,180,0.0,0.0,63,0.00,,CLR,0.00,VWS V14.01,2013-01-05 01:19:00,
2013-01-04 20:24:00,36.5,25.1,30.33,South,180,0.0,0.0,63,0.00,,CLR,0.00,VWS V14.01,2013-01-05 01:24:00,
2013-01-04 20:29:00,36.4,25.4,30.33,ESE,112,0.0,0.0,64,0.00,,CLR,0.00,VWS V14.01,2013-01-05 01:29:00,
2013-01-04 20:34:00,35.8,24.8,30.33,ESE,112,0.0,0.0,64,0.00,,CLR,0.00,VWS V14.01,2013-01-05 01:34:00,
2013-01-04 20:39:00,35.6,25.0,30.33,SSW,202,0.0,0.0,65,0.00,,CLR,0.00,VWS V14.01,2013-01-05 01:39:00,
2013-01-04 20:44:00,34.9,24.3,30.33,NNE,22,0.0,0.0,65,0.00,,CLR,0.00,VWS V14.01,2013-01-05 01:44:00,
2013-01-04 20:49:00,34.7,24.5,30.33,NNE,22,0.0,0.0,66,0.00,,CLR,0.00,VWS V14.01,2013-01-05 01:49:00,
2013-01-04 20:54:00,34.4,24.2,30.33,WSW,248,0.0,0.0,66,0.00,,CLR,0.00,VWS V14.01,2013-01-05 01:54:00,
2013-01-04 20:59:00,34.2,24.0,30.34,SSW,202,0.0,0.0,66,0.00,,CLR,0.00,VWS V14.01,2013-01-05 01:59:00,
2013-01-04 21:04:00,34.0,24.2,30.34,SE,135,0.0,0.0,67,0.00,,CLR,0.00,VWS V14.01,2013-01-05 02:04:00,
2013-01-04 21:09:00,33.7,23.9,30.34,SW,225,0.0,0.0,67,0.00,,CLR,0.00,VWS V14.01,2013-01-05 02:09:00,
2013-01-04 21:14:00,33.3,23.5,30.34,SW,225,0.0,0.0,67,0.00,,CLR,0.00,VWS V14.01,2013-01-05 02:14:00,
2013-01-04 21:19:00,32.9,23.5,30.33,SSE,158,0.0,0.0,68,0.00,,CLR,0.00,VWS V14.01,2013-01-05 02:19:00,
2013-01-04 21:24:00,32.8,23.8,30.33,East,90,0.0,0.0,69,0.00,,CLR,0.00,VWS V14.01,2013-01-05 02:24:00,
2013-01-04 21:29:00,32.4,23.4,30.34,SE,135,0.0,0.0,69,0.00,,CLR,0.00,VWS V14.01,2013-01-05 02:29:00,
2013-01-04 21:34:00,32.6,23.6,30.34,SE,135,0.0,0.0,69,0.00,,CLR,0.00,VWS V14.01,2013-01-05 02:34:00,
2013-01-04 21:39:00,32.6,23.9,30.34,NNE,22,0.4,0.4,70,0.00,,CLR,0.00,VWS V14.01,2013-01-05 02:39:00,
2013-01-04 21:44:00,32.2,23.5,30.35,NE,45,0.0,0.0,70,0.00,,CLR,0.00,VWS V14.01,2013-01-05 02:44:00,
2013-01-04 21:49:00,31.9,23.2,30.34,North,0,0.0,0.0,70,0.00,,CLR,0.00,VWS V14.01,2013-01-05 02:49:00,
2013-01-04 21:54:00,31.5,22.9,30.34,South,180,0.0,0.0,70,0.00,,CLR,0.00,VWS V14.01,2013-01-05 02:54:00,
2013-01-04 21:59:00,31.3,22.7,30.35,ESE,112,0.0,0.0,70,0.00,,CLR,0.00,VWS V14.01,2013-01-05 02:59:00,
2013-01-04 22:04:00,31.0,22.7,30.35,ENE,68,0.2,0.2,71,0.00,,CLR,0.00,VWS V14.01,2013-01-05 03:04:00,
2013-01-04 22:09:00,30.6,22.7,30.35,SSE,158,0.0,0.0,72,0.00,,CLR,0.00,VWS V14.01,2013-01-05 03:09:00,
2013-01-04 22:14:00,30.6,22.7,30.35,SSE,158,0.0,0.0,72,0.00,,CLR,0.00,VWS V14.01,2013-01-05 03:14:00,
2013-01-04 22:19:00,30.4,22.8,30.35,SSW,202,0.0,0.0,73,0.00,,CLR,0.00,VWS V14.01,2013-01-05 03:19:00,
2013-01-04 22:24:00,30.2,22.6,30.35,South,180,0.0,0.0,73,0.00,,CLR,0.00,VWS V14.01,2013-01-05 03:24:00,
2013-01-04 22:29:00,29.9,22.3,30.35,NNE,22,0.0,0.0,73,0.00,,CLR,0.00,VWS V14.01,2013-01-05 03:29:00,
2013-01-04 22:33:00,29.9,22.3,30.35,NNE,22,0.0,0.0,73,0.00,,CLR,0.00,VWS V14.01,2013-01-05 03:33:00,
2013-01-04 22:38:00,29.7,22.1,30.35,SSE,158,0.0,0.0,73,0.00,,CLR,0.00,VWS V14.01,2013-01-05 03:38:00,
2013-01-04 22:43:00,29.5,22.2,30.35,SE,135,0.0,0.0,74,0.00,,CLR,0.00,VWS V14.01,2013-01-05 03:43:00,
2013-01-04 22:48:00,29.3,22.1,30.35,SE,135,0.0,0.0,74,0.00,,CLR,0.00,VWS V14.01,2013-01-05 03:48:00,
2013-01-04 22:53:00,29.2,22.3,30.35,SE,135,0.0,0.0,75,0.00,,CLR,0.00,VWS V14.01,2013-01-05 03:53:00,
2013-01-04 22:58:00,29.0,22.4,30.35,SE,135,0.0,0.0,76,0.00,,CLR,0.00,VWS V14.01,2013-01-05 03:58:00,
2013-01-04 23:03:00,28.8,22.2,30.35,ESE,112,0.0,0.0,76,0.00,,CLR,0.00,VWS V14.01,2013-01-05 04:03:00,
2013-01-04 23:08:00,28.6,22.0,30.35,SE,135,0.0,0.0,76,0.00,,CLR,0.00,VWS V14.01,2013-01-05 04:08:00,
2013-01-04 23:13:00,28.6,21.7,30.35,SE,135,0.0,0.0,75,0.00,,CLR,0.00,VWS V14.01,2013-01-05 04:13:00,
2013-01-04 23:18:00,28.4,21.5,30.35,SE,135,0.0,0.0,75,0.00,,CLR,0.00,VWS V14.01,2013-01-05 04:18:00,
2013-01-04 23:23:00,28.4,21.5,30.35,NW,315,0.0,0.0,75,0.00,,CLR,0.00,VWS V14.01,2013-01-05 04:23:00,
2013-01-04 23:28:00,28.3,21.7,30.35,SSW,202,0.0,0.0,76,0.00,,CLR,0.00,VWS V14.01,2013-01-05 04:28:00,
2013-01-04 23:33:00,28.3,21.7,30.35,SE,135,0.0,0.0,76,0.00,,CLR,0.00,VWS V14.01,2013-01-05 04:33:00,
2013-01-04 23:38:00,28.4,21.8,30.35,SE,135,0.0,0.0,76,0.00,,CLR,0.00,VWS V14.01,2013-01-05 04:38:00,
2013-01-04 23:43:00,28.8,22.2,30.35,East,90,0.2,0.2,76,0.00,,CLR,0.00,VWS V14.01,2013-01-05 04:43:00,
2013-01-04 23:48:00,30.1,23.5,30.35,NW,315,0.0,0.0,76,0.00,,CLR,0.00,VWS V14.01,2013-01-05 04:48:00,
2013-01-04 23:54:00,31.1,23.5,30.35,WSW,248,0.9,0.9,73,0.00,,CLR,0.00,VWS V14.01,2013-01-05 04:54:00,
2013-01-04 23:59:00,32.0,24.0,30.35,NNW,338,0.0,0.0,72,0.00,,CLR,0.00,VWS V14.01,2013-01-05 04:59:00,